CheckWX is a tool to help pilots better visualize weather data.  It is not intended as a substitute for an official pre-flight weather briefing.

12:04:04 UTC

KRDG TAF
Reading Regional / Carl A Spaatz Field Airport
Reading, Pennsylvania, USA
KRDG 201123Z 2012/2112 VRB03KT P6SM SCT080 FM201800 19004KT P6SM BKN050 PROB30 2021/2024 4SM TSRA OVC025CB FM210500 00000KT 6SM BR BKN070 FM210800 00000KT 4SM -SHRA BR BKN030

Aug-20@
12:00 UTC

Aug-20 @ 12:00 UTC

Aug-20@
18:00 UTC

Aug-20 @ 18:00 UTC

KRDG 201123Z 2012/2112 VRB03KT P6SM SCT080
Wind
  • Variable at 3 KTS
Cloud Levels
  • Scattered at 8,000' AGL

Aug-20@
18:00 UTC

Aug-20 @ 18:00 UTC

Aug-21@
05:00 UTC

Aug-21 @ 05:00 UTC

FM201800 19004KT P6SM BKN050

From

From Standard forecast or significant change

Wind
  • 190° at 4 KTS
Cloud Levels
  • Broken at 5,000' AGL

Aug-20@
21:00 UTC

Aug-20 @ 21:00 UTC

Aug-21@
00:00 UTC

Aug-21 @ 00:00 UTC

PROB30 2021/2024 4SM TSRA OVC025CB

Probable - 30% Likelihood

Probable - 30% Likelihood during this time.

Conditions
Thunderstorm, Rain
Cloud Levels
  • Overcast at 2,500' AGL

Aug-21@
05:00 UTC

Aug-21 @ 05:00 UTC

Aug-21@
08:00 UTC

Aug-21 @ 08:00 UTC

FM210500 00000KT 6SM BR BKN070

From

From Standard forecast or significant change

Conditions
Mist
Cloud Levels
  • Broken at 7,000' AGL

Aug-21@
08:00 UTC

Aug-21 @ 08:00 UTC

Aug-21@
12:00 UTC

Aug-21 @ 12:00 UTC

FM210800 00000KT 4SM -SHRA BR BKN030

From

From Standard forecast or significant change

Conditions
Light Rain, Mist
Cloud Levels
  • Broken at 3,000' AGL